Time,TemperatureF,DewpointF,PressureIn,WindDirection,WindDirectionDegrees,WindSpeedMPH,WindSpeedGustMPH,Humidity,HourlyPrecipIn,Conditions,Clouds,dailyrainin,SoftwareType,DateUTC
2013-08-25 00:02:00,-999.0,-99.9,30.28,NNE,27,0.0,-999.0,-999,-99.99,,,-99.99,,2013-08-25 04:02:00,
2013-08-25 00:14:00,63.0,60.0,30.28,NNE,27,0.0,-999.0,90,-99.99,,,-99.99,,2013-08-25 04:14:00,
2013-08-25 00:25:00,63.0,61.0,30.27,NNE,27,0.0,-999.0,92,-99.99,,,-99.99,,2013-08-25 04:25:00,
2013-08-25 00:34:00,63.0,61.0,30.27,NNE,27,0.0,-999.0,92,-99.99,,,-99.99,,2013-08-25 04:34:00,
2013-08-25 00:54:00,62.0,60.0,30.28,NNE,27,0.0,-999.0,94,-99.99,,,-99.99,,2013-08-25 04:54:00,
2013-08-25 01:03:00,62.0,60.0,30.28,NNE,27,0.0,-999.0,94,-99.99,,,-99.99,,2013-08-25 05:03:00,
2013-08-25 01:12:00,62.0,60.0,30.28,NNE,27,0.0,-999.0,94,-99.99,,,-99.99,,2013-08-25 05:12:00,
2013-08-25 01:23:00,61.0,60.0,30.27,NNE,27,0.0,-999.0,95,-99.99,,,-99.99,,2013-08-25 05:23:00,
2013-08-25 01:34:00,61.0,60.0,30.27,NNE,27,0.0,-999.0,95,-99.99,,,-99.99,,2013-08-25 05:34:00,
2013-08-25 01:52:00,61.0,60.0,30.28,NNE,27,0.0,-999.0,96,-99.99,,,-99.99,,2013-08-25 05:52:00,
2013-08-25 02:03:00,61.0,60.0,30.28,NNE,27,0.0,-999.0,96,-99.99,,,-99.99,,2013-08-25 06:03:00,
2013-08-25 02:12:00,61.0,60.0,30.28,NNE,27,0.0,-999.0,96,-99.99,,,-99.99,,2013-08-25 06:12:00,
2013-08-25 02:22:00,60.0,59.0,30.28,NNE,27,0.0,-999.0,97,-99.99,,,-99.99,,2013-08-25 06:22:00,
2013-08-25 02:32:00,60.0,59.0,30.28,NNE,27,0.0,-999.0,97,-99.99,,,-99.99,,2013-08-25 06:32:00,
2013-08-25 02:52:00,60.0,59.0,30.28,NNE,27,0.0,-999.0,97,-99.99,,,-99.99,,2013-08-25 06:52:00,
2013-08-25 03:01:00,60.0,59.0,30.28,NNE,27,0.0,-999.0,97,-99.99,,,-99.99,,2013-08-25 07:01:00,
2013-08-25 03:12:00,60.0,59.0,30.28,NNE,27,0.0,-999.0,97,-99.99,,,-99.99,,2013-08-25 07:12:00,
2013-08-25 03:22:00,59.0,58.0,30.28,NNE,27,0.0,-999.0,97,-99.99,,,-99.99,,2013-08-25 07:22:00,
2013-08-25 03:32:00,59.0,58.0,30.28,NNE,27,0.0,-999.0,97,-99.99,,,-99.99,,2013-08-25 07:32:00,
2013-08-25 03:52:00,59.0,58.0,30.29,NNE,27,0.0,-999.0,98,-99.99,,,-99.99,,2013-08-25 07:52:00,
2013-08-25 04:02:00,59.0,58.0,30.29,NNE,27,0.0,-999.0,98,-99.99,,,-99.99,,2013-08-25 08:02:00,
2013-08-25 04:12:00,59.0,58.0,30.29,NNE,27,0.0,-999.0,98,-99.99,,,-99.99,,2013-08-25 08:12:00,
2013-08-25 04:21:00,59.0,58.0,30.29,NNE,27,0.0,-999.0,98,-99.99,,,-99.99,,2013-08-25 08:21:00,
2013-08-25 04:32:00,59.0,58.0,30.29,NNE,27,0.0,-999.0,98,-99.99,,,-99.99,,2013-08-25 08:32:00,
2013-08-25 04:52:00,59.0,58.0,30.29,NNE,27,0.0,-999.0,98,-99.99,,,-99.99,,2013-08-25 08:52:00,
2013-08-25 05:02:00,59.0,58.0,30.29,NNE,27,0.0,-999.0,98,-99.99,,,-99.99,,2013-08-25 09:02:00,
2013-08-25 05:22:00,58.0,57.0,30.30,NNE,27,0.0,-999.0,98,-99.99,,,-99.99,,2013-08-25 09:22:00,
2013-08-25 05:34:00,58.0,57.0,30.30,NNE,27,0.0,-999.0,98,-99.99,,,-99.99,,2013-08-25 09:34:00,
2013-08-25 05:55:00,58.0,57.0,30.31,NNE,27,0.0,-999.0,98,-99.99,,,-99.99,,2013-08-25 09:55:00,
2013-08-25 06:03:00,58.0,57.0,30.31,NNE,27,0.0,-999.0,98,-99.99,,,-99.99,,2013-08-25 10:03:00,
2013-08-25 06:23:00,57.0,56.0,30.32,NNE,27,0.0,-999.0,98,-99.99,,,-99.99,,2013-08-25 10:23:00,
2013-08-25 06:33:00,57.0,56.0,30.32,NNE,27,0.0,-999.0,98,-99.99,,,-99.99,,2013-08-25 10:33:00,
2013-08-25 06:53:00,57.0,57.0,30.32,NNE,27,0.0,-999.0,99,-99.99,,,-99.99,,2013-08-25 10:53:00,
2013-08-25 07:02:00,57.0,57.0,30.32,NNE,27,0.0,-999.0,99,-99.99,,,-99.99,,2013-08-25 11:02:00,
2013-08-25 07:22:00,57.0,57.0,30.34,NNE,27,0.0,-999.0,99,-99.99,,,-99.99,,2013-08-25 11:22:00,
2013-08-25 07:33:00,57.0,57.0,30.34,NNE,27,0.0,-999.0,99,-99.99,,,-99.99,,2013-08-25 11:33:00,
2013-08-25 07:52:00,57.0,57.0,30.35,NNE,27,0.0,-999.0,99,-99.99,,,-99.99,,2013-08-25 11:52:00,
2013-08-25 08:01:00,57.0,57.0,30.35,NNE,27,0.0,-999.0,99,-99.99,,,-99.99,,2013-08-25 12:01:00,
2013-08-25 08:12:00,57.0,57.0,30.35,NNE,27,0.0,-999.0,99,-99.99,,,-99.99,,2013-08-25 12:12:00,
2013-08-25 08:22:00,58.0,58.0,30.35,NNE,27,0.0,-999.0,99,-99.99,,,-99.99,,2013-08-25 12:22:00,
2013-08-25 08:32:00,58.0,58.0,30.35,NNE,27,0.0,-999.0,99,-99.99,,,-99.99,,2013-08-25 12:32:00,
2013-08-25 08:52:00,59.0,59.0,30.35,NNE,27,0.0,-999.0,100,-99.99,,,-99.99,,2013-08-25 12:52:00,
2013-08-25 09:22:00,61.0,61.0,30.34,ESE,111,0.0,-999.0,99,-99.99,,,-99.99,,2013-08-25 13:22:00,
2013-08-25 09:32:00,61.0,61.0,30.34,ESE,111,0.0,-999.0,99,-99.99,,,-99.99,,2013-08-25 13:32:00,
2013-08-25 09:52:00,64.0,63.0,30.34,South,176,0.0,-999.0,97,-99.99,,,-99.99,,2013-08-25 13:52:00,
2013-08-25 10:02:00,64.0,63.0,30.34,South,176,0.0,-999.0,97,-99.99,,,-99.99,,2013-08-25 14:02:00,
2013-08-25 10:26:00,68.0,64.0,30.34,SSW,196,0.0,-999.0,88,-99.99,,,-99.99,,2013-08-25 14:26:00,
2013-08-25 10:32:00,68.0,64.0,30.34,SSW,196,0.0,-999.0,88,-99.99,,,-99.99,,2013-08-25 14:32:00,
2013-08-25 10:52:00,72.0,66.0,30.34,SSW,204,1.0,-999.0,81,-99.99,,,-99.99,,2013-08-25 14:52:00,
2013-08-25 11:01:00,72.0,66.0,30.34,SSW,204,1.0,-999.0,81,-99.99,,,-99.99,,2013-08-25 15:01:00,
2013-08-25 11:23:00,73.0,66.0,30.34,SW,222,0.0,-999.0,80,-99.99,,,-99.99,,2013-08-25 15:23:00,
2013-08-25 11:35:00,73.0,66.0,30.34,SW,222,0.0,-999.0,80,-99.99,,,-99.99,,2013-08-25 15:35:00,
2013-08-25 11:55:00,76.0,67.0,30.33,SW,218,0.0,-999.0,73,-99.99,,,-99.99,,2013-08-25 15:55:00,
2013-08-25 12:05:00,76.0,67.0,30.33,SW,218,0.0,-999.0,73,-99.99,,,-99.99,,2013-08-25 16:05:00,
2013-08-25 12:24:00,78.0,66.0,30.33,SW,220,0.0,-999.0,66,-99.99,,,-99.99,,2013-08-25 16:24:00,
2013-08-25 12:33:00,78.0,66.0,30.33,SW,220,0.0,-999.0,66,-99.99,,,-99.99,,2013-08-25 16:33:00,
2013-08-25 12:54:00,79.0,66.0,30.33,SE,139,0.0,-999.0,65,-99.99,,,-99.99,,2013-08-25 16:54:00,
2013-08-25 13:03:00,79.0,66.0,30.33,SE,139,0.0,-999.0,65,-99.99,,,-99.99,,2013-08-25 17:03:00,
2013-08-25 13:23:00,78.0,65.0,30.32,South,182,0.0,-999.0,65,-99.99,,,-99.99,,2013-08-25 17:23:00,
2013-08-25 13:34:00,78.0,65.0,30.32,South,182,0.0,-999.0,65,-99.99,,,-99.99,,2013-08-25 17:34:00,
2013-08-25 13:53:00,79.0,63.0,30.31,West,271,0.0,-999.0,59,-99.99,,,-99.99,,2013-08-25 17:53:00,
2013-08-25 14:02:00,79.0,63.0,30.31,West,271,0.0,-999.0,59,-99.99,,,-99.99,,2013-08-25 18:02:00,
2013-08-25 14:12:00,79.0,63.0,30.31,West,271,0.0,-999.0,59,-99.99,,,-99.99,,2013-08-25 18:12:00,
2013-08-25 14:22:00,79.0,63.0,30.30,West,262,0.0,-999.0,59,-99.99,,,-99.99,,2013-08-25 18:22:00,
2013-08-25 14:32:00,79.0,63.0,30.30,West,262,0.0,-999.0,59,-99.99,,,-99.99,,2013-08-25 18:32:00,
2013-08-25 14:52:00,79.0,65.0,30.30,North,353,0.0,-999.0,62,-99.99,,,-99.99,,2013-08-25 18:52:00,
2013-08-25 15:02:00,79.0,65.0,30.30,North,353,0.0,-999.0,62,-99.99,,,-99.99,,2013-08-25 19:02:00,
2013-08-25 15:12:00,79.0,65.0,30.30,North,353,0.0,-999.0,62,-99.99,,,-99.99,,2013-08-25 19:12:00,
2013-08-25 15:22:00,80.0,61.0,30.29,South,177,0.0,-999.0,53,-99.99,,,-99.99,,2013-08-25 19:22:00,
2013-08-25 15:32:00,80.0,61.0,30.29,South,177,0.0,-999.0,53,-99.99,,,-99.99,,2013-08-25 19:32:00,
2013-08-25 15:53:00,80.0,64.0,30.29,SW,232,3.0,-999.0,58,-99.99,,,-99.99,,2013-08-25 19:53:00,
2013-08-25 16:03:00,80.0,64.0,30.29,SW,232,3.0,-999.0,58,-99.99,,,-99.99,,2013-08-25 20:03:00,
2013-08-25 16:13:00,80.0,64.0,30.29,SW,232,3.0,-999.0,58,-99.99,,,-99.99,,2013-08-25 20:13:00,
2013-08-25 16:23:00,79.0,61.0,30.28,SW,227,0.0,-999.0,54,-99.99,,,-99.99,,2013-08-25 20:23:00,
2013-08-25 16:33:00,79.0,61.0,30.28,SW,227,0.0,-999.0,54,-99.99,,,-99.99,,2013-08-25 20:33:00,
2013-08-25 16:53:00,80.0,62.0,30.27,South,185,1.0,-999.0,54,-99.99,,,-99.99,,2013-08-25 20:53:00,
2013-08-25 17:02:00,80.0,62.0,30.27,South,185,1.0,-999.0,54,-99.99,,,-99.99,,2013-08-25 21:02:00,
2013-08-25 17:22:00,79.0,63.0,30.27,SSW,213,0.0,-999.0,58,-99.99,,,-99.99,,2013-08-25 21:22:00,
2013-08-25 17:34:00,79.0,63.0,30.27,SSW,213,0.0,-999.0,58,-99.99,,,-99.99,,2013-08-25 21:34:00,
2013-08-25 17:55:00,79.0,61.0,30.26,SSW,193,0.0,-999.0,55,-99.99,,,-99.99,,2013-08-25 21:55:00,
2013-08-25 18:03:00,79.0,61.0,30.26,SSW,193,0.0,-999.0,55,-99.99,,,-99.99,,2013-08-25 22:03:00,
2013-08-25 18:24:00,79.0,62.0,30.26,SSW,200,4.0,-999.0,56,-99.99,,,-99.99,,2013-08-25 22:24:00,
2013-08-25 18:34:00,79.0,62.0,30.26,SSW,200,4.0,-999.0,56,-99.99,,,-99.99,,2013-08-25 22:34:00,
2013-08-25 18:53:00,78.0,62.0,30.25,South,189,1.0,-999.0,58,-99.99,,,-99.99,,2013-08-25 22:53:00,
2013-08-25 19:03:00,78.0,62.0,30.25,South,189,1.0,-999.0,58,-99.99,,,-99.99,,2013-08-25 23:03:00,
2013-08-25 19:12:00,78.0,62.0,30.25,South,189,1.0,-999.0,58,-99.99,,,-99.99,,2013-08-25 23:12:00,
2013-08-25 19:23:00,77.0,62.0,30.24,WSW,251,0.0,-999.0,60,-99.99,,,-99.99,,2013-08-25 23:23:00,
2013-08-25 19:34:00,77.0,62.0,30.24,WSW,251,0.0,-999.0,60,-99.99,,,-99.99,,2013-08-25 23:34:00,
2013-08-25 19:53:00,76.0,62.0,30.24,SSW,212,0.0,-999.0,62,-99.99,,,-99.99,,2013-08-25 23:53:00,
2013-08-25 20:02:00,76.0,62.0,30.24,SSW,212,0.0,-999.0,62,-99.99,,,-99.99,,2013-08-26 00:02:00,
2013-08-25 20:22:00,75.0,62.0,30.24,SSW,201,0.0,-999.0,64,-99.99,,,-99.99,,2013-08-26 00:22:00,
2013-08-25 20:32:00,75.0,62.0,30.24,SSW,201,0.0,-999.0,64,-99.99,,,-99.99,,2013-08-26 00:32:00,
2013-08-25 20:42:00,75.0,62.0,30.24,SSW,201,0.0,-999.0,64,-99.99,,,-99.99,,2013-08-26 00:42:00,
2013-08-25 20:52:00,74.0,61.0,30.24,South,176,0.0,-999.0,65,-99.99,,,-99.99,,2013-08-26 00:52:00,
2013-08-25 21:01:00,74.0,61.0,30.24,South,176,0.0,-999.0,65,-99.99,,,-99.99,,2013-08-26 01:01:00,
2013-08-25 21:11:00,74.0,61.0,30.24,South,176,0.0,-999.0,65,-99.99,,,-99.99,,2013-08-26 01:11:00,
2013-08-25 21:22:00,73.0,61.0,30.24,South,189,0.0,-999.0,66,-99.99,,,-99.99,,2013-08-26 01:22:00,
2013-08-25 21:32:00,73.0,61.0,30.24,South,189,0.0,-999.0,66,-99.99,,,-99.99,,2013-08-26 01:32:00,
2013-08-25 21:42:00,73.0,61.0,30.24,South,189,0.0,-999.0,66,-99.99,,,-99.99,,2013-08-26 01:42:00,
2013-08-25 21:52:00,72.0,62.0,30.25,South,189,0.0,-999.0,71,-99.99,,,-99.99,,2013-08-26 01:52:00,
2013-08-25 22:02:00,72.0,62.0,30.25,South,189,0.0,-999.0,71,-99.99,,,-99.99,,2013-08-26 02:02:00,
2013-08-25 22:22:00,70.0,62.0,30.25,South,189,0.0,-999.0,76,-99.99,,,-99.99,,2013-08-26 02:22:00,
2013-08-25 22:32:00,70.0,62.0,30.25,South,189,0.0,-999.0,76,-99.99,,,-99.99,,2013-08-26 02:32:00,
2013-08-25 22:42:00,70.0,62.0,30.25,South,189,0.0,-999.0,76,-99.99,,,-99.99,,2013-08-26 02:42:00,
2013-08-25 22:52:00,68.0,62.0,30.27,South,189,0.0,-999.0,81,-99.99,,,-99.99,,2013-08-26 02:52:00,
2013-08-25 23:02:00,68.0,62.0,30.27,South,189,0.0,-999.0,81,-99.99,,,-99.99,,2013-08-26 03:02:00,
2013-08-25 23:22:00,67.0,62.0,30.27,South,189,0.0,-999.0,85,-99.99,,,-99.99,,2013-08-26 03:22:00,
2013-08-25 23:34:00,67.0,62.0,30.27,South,189,0.0,-999.0,85,-99.99,,,-99.99,,2013-08-26 03:34:00,
2013-08-25 23:56:00,65.0,61.0,30.27,South,189,0.0,-999.0,88,-99.99,,,-99.99,,2013-08-26 03:56:00,